sensor_id;sensor_type;location;lat;lon;timestamp;P1;durP1;ratioP1;P2;durP2;ratioP2
53915;SDS011;39827;49.652;18.770;2023-06-14T00:01:49;1001.95;;;910.67;;
53915;SDS011;39827;49.652;18.770;2023-06-14T00:04:15;995.17;;;905.88;;
53915;SDS011;39827;49.652;18.770;2023-06-14T00:06:45;986.85;;;899.20;;
53915;SDS011;39827;49.652;18.770;2023-06-14T00:09:11;996.80;;;904.95;;
53915;SDS011;39827;49.652;18.770;2023-06-14T00:11:42;1008.63;;;917.03;;
53915;SDS011;39827;49.652;18.770;2023-06-14T00:14:08;1007.53;;;912.97;;
53915;SDS011;39827;49.652;18.770;2023-06-14T00:16:33;1012.85;;;918.53;;
53915;SDS011;39827;49.652;18.770;2023-06-14T00:19:00;1021.20;;;925.55;;
53915;SDS011;39827;49.652;18.770;2023-06-14T00:21:28;1016.80;;;921.78;;
53915;SDS011;39827;49.652;18.770;2023-06-14T00:23:54;1001.97;;;910.72;;
53915;SDS011;39827;49.652;18.770;2023-06-14T00:26:20;1008.95;;;915.78;;
53915;SDS011;39827;49.652;18.770;2023-06-14T00:28:46;1007.58;;;915.60;;
53915;SDS011;39827;49.652;18.770;2023-06-14T00:31:11;1011.80;;;920.47;;
53915;SDS011;39827;49.652;18.770;2023-06-14T00:33:36;1035.93;;;941.13;;
53915;SDS011;39827;49.652;18.770;2023-06-14T00:36:02;1014.17;;;920.22;;
53915;SDS011;39827;49.652;18.770;2023-06-14T00:38:27;1015.55;;;922.72;;
53915;SDS011;39827;49.652;18.770;2023-06-14T00:40:53;1009.83;;;915.13;;
53915;SDS011;39827;49.652;18.770;2023-06-14T00:43:18;1007.53;;;912.92;;
53915;SDS011;39827;49.652;18.770;2023-06-14T00:45:43;1013.20;;;918.95;;
53915;SDS011;39827;49.652;18.770;2023-06-14T00:48:09;1006.40;;;914.40;;
53915;SDS011;39827;49.652;18.770;2023-06-14T00:50:36;1021.42;;;925.50;;
53915;SDS011;39827;49.652;18.770;2023-06-14T00:53:01;1022.15;;;926.83;;
53915;SDS011;39827;49.652;18.770;2023-06-14T00:55:28;1022.15;;;927.13;;
53915;SDS011;39827;49.652;18.770;2023-06-14T00:57:56;1049.93;;;952.33;;
53915;SDS011;39827;49.652;18.770;2023-06-14T01:00:22;1025.93;;;928.92;;
53915;SDS011;39827;49.652;18.770;2023-06-14T01:02:47;1032.78;;;934.67;;
53915;SDS011;39827;49.652;18.770;2023-06-14T01:05:14;1047.80;;;948.75;;
53915;SDS011;39827;49.652;18.770;2023-06-14T01:07:50;1017.10;;;922.15;;
53915;SDS011;39827;49.652;18.770;2023-06-14T01:10:51;1052.32;;;953.80;;
53915;SDS011;39827;49.652;18.770;2023-06-14T01:13:23;1026.88;;;931.50;;
53915;SDS011;39827;49.652;18.770;2023-06-14T01:15:52;1021.28;;;925.17;;
53915;SDS011;39827;49.652;18.770;2023-06-14T01:18:20;990.25;;;900.60;;
53915;SDS011;39827;49.652;18.770;2023-06-14T01:20:49;991.63;;;901.58;;
53915;SDS011;39827;49.652;18.770;2023-06-14T01:23:16;995.75;;;904.47;;
53915;SDS011;39827;49.652;18.770;2023-06-14T01:25:44;1007.03;;;913.83;;
53915;SDS011;39827;49.652;18.770;2023-06-14T01:28:09;1029.75;;;932.38;;
53915;SDS011;39827;49.652;18.770;2023-06-14T01:30:36;966.95;;;879.33;;
53915;SDS011;39827;49.652;18.770;2023-06-14T01:33:03;1018.25;;;923.35;;
53915;SDS011;39827;49.652;18.770;2023-06-14T01:35:30;984.08;;;895.38;;
53915;SDS011;39827;49.652;18.770;2023-06-14T01:37:56;1003.80;;;911.75;;
53915;SDS011;39827;49.652;18.770;2023-06-14T01:40:23;1018.97;;;923.15;;
53915;SDS011;39827;49.652;18.770;2023-06-14T01:42:50;1017.58;;;922.55;;
53915;SDS011;39827;49.652;18.770;2023-06-14T01:45:16;1016.75;;;921.90;;
53915;SDS011;39827;49.652;18.770;2023-06-14T01:47:43;1003.15;;;911.53;;
53915;SDS011;39827;49.652;18.770;2023-06-14T01:50:10;1001.42;;;910.00;;
53915;SDS011;39827;49.652;18.770;2023-06-14T01:52:36;1021.17;;;924.72;;
53915;SDS011;39827;49.652;18.770;2023-06-14T01:55:03;1017.70;;;921.92;;
53915;SDS011;39827;49.652;18.770;2023-06-14T01:57:33;991.88;;;902.78;;
53915;SDS011;39827;49.652;18.770;2023-06-14T01:59:58;1004.95;;;912.47;;
53915;SDS011;39827;49.652;18.770;2023-06-14T02:02:23;1012.67;;;920.28;;
53915;SDS011;39827;49.652;18.770;2023-06-14T02:04:49;973.88;;;887.83;;
53915;SDS011;39827;49.652;18.770;2023-06-14T02:07:14;996.55;;;905.65;;
53915;SDS011;39827;49.652;18.770;2023-06-14T02:09:40;980.22;;;892.35;;
53915;SDS011;39827;49.652;18.770;2023-06-14T02:12:06;992.63;;;902.08;;
53915;SDS011;39827;49.652;18.770;2023-06-14T02:14:32;999.70;;;907.75;;
53915;SDS011;39827;49.652;18.770;2023-06-14T02:16:58;972.00;;;886.40;;
53915;SDS011;39827;49.652;18.770;2023-06-14T02:19:26;983.30;;;895.67;;
53915;SDS011;39827;49.652;18.770;2023-06-14T02:21:51;987.08;;;898.63;;
53915;SDS011;39827;49.652;18.770;2023-06-14T02:24:17;1000.88;;;908.88;;
53915;SDS011;39827;49.652;18.770;2023-06-14T02:26:42;1002.53;;;912.25;;
53915;SDS011;39827;49.652;18.770;2023-06-14T02:29:08;1008.88;;;916.03;;
53915;SDS011;39827;49.652;18.770;2023-06-14T02:31:36;997.28;;;907.35;;
53915;SDS011;39827;49.652;18.770;2023-06-14T02:34:03;1017.13;;;922.58;;
53915;SDS011;39827;49.652;18.770;2023-06-14T02:36:28;1023.80;;;927.92;;
53915;SDS011;39827;49.652;18.770;2023-06-14T02:38:55;1027.10;;;930.85;;
53915;SDS011;39827;49.652;18.770;2023-06-14T02:41:22;1012.60;;;920.13;;
53915;SDS011;39827;49.652;18.770;2023-06-14T02:43:48;1019.13;;;923.97;;
53915;SDS011;39827;49.652;18.770;2023-06-14T02:46:14;1017.95;;;923.70;;
53915;SDS011;39827;49.652;18.770;2023-06-14T02:48:39;992.90;;;903.88;;
53915;SDS011;39827;49.652;18.770;2023-06-14T02:51:05;996.95;;;905.22;;
53915;SDS011;39827;49.652;18.770;2023-06-14T02:53:31;978.42;;;890.78;;
53915;SDS011;39827;49.652;18.770;2023-06-14T02:55:56;1003.75;;;910.42;;
53915;SDS011;39827;49.652;18.770;2023-06-14T02:58:21;1014.72;;;919.85;;
53915;SDS011;39827;49.652;18.770;2023-06-14T03:00:50;1006.88;;;915.30;;
53915;SDS011;39827;49.652;18.770;2023-06-14T03:03:17;1015.50;;;920.55;;
53915;SDS011;39827;49.652;18.770;2023-06-14T03:05:44;1026.95;;;929.47;;
53915;SDS011;39827;49.652;18.770;2023-06-14T03:08:12;1018.72;;;923.15;;
53915;SDS011;39827;49.652;18.770;2023-06-14T03:10:47;1013.50;;;919.42;;
53915;SDS011;39827;49.652;18.770;2023-06-14T03:13:14;982.08;;;893.38;;
53915;SDS011;39827;49.652;18.770;2023-06-14T03:15:43;1011.33;;;916.55;;
53915;SDS011;39827;49.652;18.770;2023-06-14T03:18:10;1021.83;;;925.25;;
53915;SDS011;39827;49.652;18.770;2023-06-14T03:20:37;1010.67;;;917.63;;
53915;SDS011;39827;49.652;18.770;2023-06-14T03:23:02;1027.07;;;930.55;;
53915;SDS011;39827;49.652;18.770;2023-06-14T03:25:30;1030.00;;;933.28;;
53915;SDS011;39827;49.652;18.770;2023-06-14T03:27:56;989.42;;;900.92;;
53915;SDS011;39827;49.652;18.770;2023-06-14T03:30:21;1016.45;;;922.40;;
53915;SDS011;39827;49.652;18.770;2023-06-14T03:32:47;1010.38;;;918.05;;
53915;SDS011;39827;49.652;18.770;2023-06-14T03:35:12;1026.78;;;931.08;;
53915;SDS011;39827;49.652;18.770;2023-06-14T03:37:45;1005.60;;;912.22;;
53915;SDS011;39827;49.652;18.770;2023-06-14T03:40:12;1003.17;;;911.85;;
53915;SDS011;39827;49.652;18.770;2023-06-14T03:42:38;1006.22;;;914.03;;
53915;SDS011;39827;49.652;18.770;2023-06-14T03:45:04;1000.33;;;909.13;;
53915;SDS011;39827;49.652;18.770;2023-06-14T03:47:31;970.30;;;883.42;;
53915;SDS011;39827;49.652;18.770;2023-06-14T03:49:56;987.60;;;898.45;;
53915;SDS011;39827;49.652;18.770;2023-06-14T03:52:22;1037.93;;;939.00;;
53915;SDS011;39827;49.652;18.770;2023-06-14T03:54:48;1040.50;;;940.38;;
53915;SDS011;39827;49.652;18.770;2023-06-14T03:57:14;1049.35;;;947.72;;
53915;SDS011;39827;49.652;18.770;2023-06-14T03:59:40;1050.88;;;949.88;;
53915;SDS011;39827;49.652;18.770;2023-06-14T04:02:06;1048.93;;;947.65;;
53915;SDS011;39827;49.652;18.770;2023-06-14T04:04:32;1055.95;;;952.67;;
53915;SDS011;39827;49.652;18.770;2023-06-14T04:06:58;1038.30;;;941.45;;
53915;SDS011;39827;49.652;18.770;2023-06-14T04:09:25;1040.88;;;942.13;;
53915;SDS011;39827;49.652;18.770;2023-06-14T04:11:51;1047.93;;;948.47;;
53915;SDS011;39827;49.652;18.770;2023-06-14T04:14:18;1034.43;;;936.65;;
53915;SDS011;39827;49.652;18.770;2023-06-14T04:16:45;1050.47;;;950.15;;
53915;SDS011;39827;49.652;18.770;2023-06-14T04:19:11;1053.32;;;952.60;;
53915;SDS011;39827;49.652;18.770;2023-06-14T04:21:36;1041.50;;;941.67;;
53915;SDS011;39827;49.652;18.770;2023-06-14T04:24:02;1034.07;;;936.70;;
53915;SDS011;39827;49.652;18.770;2023-06-14T04:26:28;1055.78;;;954.63;;
53915;SDS011;39827;49.652;18.770;2023-06-14T04:28:54;1059.22;;;957.63;;
53915;SDS011;39827;49.652;18.770;2023-06-14T04:31:21;1037.80;;;939.55;;
53915;SDS011;39827;49.652;18.770;2023-06-14T04:33:50;1066.32;;;961.67;;
53915;SDS011;39827;49.652;18.770;2023-06-14T04:36:16;1067.93;;;964.35;;
53915;SDS011;39827;49.652;18.770;2023-06-14T04:38:42;1075.28;;;969.80;;
53915;SDS011;39827;49.652;18.770;2023-06-14T04:41:10;1065.93;;;964.17;;
53915;SDS011;39827;49.652;18.770;2023-06-14T04:43:36;1085.75;;;976.83;;
53915;SDS011;39827;49.652;18.770;2023-06-14T04:46:03;1077.45;;;972.22;;
53915;SDS011;39827;49.652;18.770;2023-06-14T04:48:30;1088.18;;;979.85;;
53915;SDS011;39827;49.652;18.770;2023-06-14T04:50:56;1082.90;;;976.15;;
53915;SDS011;39827;49.652;18.770;2023-06-14T04:53:22;1066.88;;;963.88;;
53915;SDS011;39827;49.652;18.770;2023-06-14T04:55:48;1057.65;;;956.55;;
53915;SDS011;39827;49.652;18.770;2023-06-14T04:58:15;1074.15;;;968.83;;
53915;SDS011;39827;49.652;18.770;2023-06-14T05:00:41;1076.13;;;971.80;;
53915;SDS011;39827;49.652;18.770;2023-06-14T05:03:08;1072.68;;;968.65;;
53915;SDS011;39827;49.652;18.770;2023-06-14T05:05:34;1027.53;;;933.25;;
53915;SDS011;39827;49.652;18.770;2023-06-14T05:07:59;1015.97;;;925.58;;
53915;SDS011;39827;49.652;18.770;2023-06-14T05:10:24;1018.90;;;929.95;;
53915;SDS011;39827;49.652;18.770;2023-06-14T05:12:50;1006.78;;;920.13;;
53915;SDS011;39827;49.652;18.770;2023-06-14T05:15:17;997.75;;;911.47;;
53915;SDS011;39827;49.652;18.770;2023-06-14T05:17:44;1003.67;;;916.50;;
53915;SDS011;39827;49.652;18.770;2023-06-14T05:20:12;1006.75;;;920.85;;
53915;SDS011;39827;49.652;18.770;2023-06-14T05:22:37;999.58;;;913.22;;
53915;SDS011;39827;49.652;18.770;2023-06-14T05:25:03;967.05;;;886.78;;
53915;SDS011;39827;49.652;18.770;2023-06-14T05:27:29;941.10;;;864.67;;
53915;SDS011;39827;49.652;18.770;2023-06-14T05:29:54;906.78;;;833.13;;
53915;SDS011;39827;49.652;18.770;2023-06-14T05:32:23;893.85;;;821.83;;
53915;SDS011;39827;49.652;18.770;2023-06-14T05:34:49;878.95;;;807.75;;
53915;SDS011;39827;49.652;18.770;2023-06-14T05:37:15;855.13;;;785.00;;
53915;SDS011;39827;49.652;18.770;2023-06-14T05:39:40;795.03;;;732.03;;
53915;SDS011;39827;49.652;18.770;2023-06-14T05:42:06;794.20;;;730.40;;
53915;SDS011;39827;49.652;18.770;2023-06-14T05:44:32;763.63;;;702.92;;
53915;SDS011;39827;49.652;18.770;2023-06-14T05:46:57;755.13;;;694.75;;
53915;SDS011;39827;49.652;18.770;2023-06-14T05:49:22;717.53;;;660.28;;
53915;SDS011;39827;49.652;18.770;2023-06-14T05:51:48;689.25;;;634.97;;
53915;SDS011;39827;49.652;18.770;2023-06-14T05:54:13;626.00;;;575.40;;
53915;SDS011;39827;49.652;18.770;2023-06-14T05:56:39;659.00;;;606.72;;
53915;SDS011;39827;49.652;18.770;2023-06-14T05:59:04;663.92;;;611.15;;
53915;SDS011;39827;49.652;18.770;2023-06-14T06:01:30;591.22;;;542.97;;
53915;SDS011;39827;49.652;18.770;2023-06-14T06:03:55;613.55;;;564.20;;
53915;SDS011;39827;49.652;18.770;2023-06-14T06:06:21;597.47;;;549.63;;
53915;SDS011;39827;49.652;18.770;2023-06-14T06:08:46;604.65;;;555.38;;
53915;SDS011;39827;49.652;18.770;2023-06-14T06:11:11;536.42;;;492.15;;
53915;SDS011;39827;49.652;18.770;2023-06-14T06:13:38;555.75;;;510.35;;
53915;SDS011;39827;49.652;18.770;2023-06-14T06:16:04;565.17;;;518.92;;
53915;SDS011;39827;49.652;18.770;2023-06-14T06:18:29;657.45;;;601.97;;
53915;SDS011;39827;49.652;18.770;2023-06-14T06:20:55;662.90;;;609.63;;
53915;SDS011;39827;49.652;18.770;2023-06-14T06:23:20;663.85;;;610.72;;
53915;SDS011;39827;49.652;18.770;2023-06-14T06:25:46;590.33;;;542.83;;
53915;SDS011;39827;49.652;18.770;2023-06-14T06:28:11;626.40;;;576.42;;
53915;SDS011;39827;49.652;18.770;2023-06-14T06:30:37;649.60;;;597.88;;
53915;SDS011;39827;49.652;18.770;2023-06-14T06:33:02;584.60;;;538.28;;
53915;SDS011;39827;49.652;18.770;2023-06-14T06:35:28;575.53;;;530.10;;
53915;SDS011;39827;49.652;18.770;2023-06-14T06:37:55;572.10;;;526.75;;
53915;SDS011;39827;49.652;18.770;2023-06-14T06:40:21;569.53;;;524.97;;
53915;SDS011;39827;49.652;18.770;2023-06-14T06:42:46;586.95;;;540.97;;
53915;SDS011;39827;49.652;18.770;2023-06-14T06:45:12;263.30;;;245.15;;
53915;SDS011;39827;49.652;18.770;2023-06-14T06:47:37;237.35;;;220.57;;
53915;SDS011;39827;49.652;18.770;2023-06-14T06:50:03;176.52;;;164.23;;
53915;SDS011;39827;49.652;18.770;2023-06-14T06:52:28;207.40;;;193.05;;
53915;SDS011;39827;49.652;18.770;2023-06-14T06:54:54;203.15;;;188.88;;
53915;SDS011;39827;49.652;18.770;2023-06-14T06:57:21;216.82;;;201.77;;
53915;SDS011;39827;49.652;18.770;2023-06-14T06:59:49;194.32;;;180.63;;
53915;SDS011;39827;49.652;18.770;2023-06-14T07:02:15;198.45;;;184.48;;
53915;SDS011;39827;49.652;18.770;2023-06-14T07:04:40;186.02;;;173.15;;
53915;SDS011;39827;49.652;18.770;2023-06-14T07:07:06;135.90;;;126.65;;
53915;SDS011;39827;49.652;18.770;2023-06-14T07:09:31;136.98;;;127.35;;
53915;SDS011;39827;49.652;18.770;2023-06-14T07:11:57;119.25;;;110.72;;
53915;SDS011;39827;49.652;18.770;2023-06-14T07:14:22;120.97;;;113.00;;
53915;SDS011;39827;49.652;18.770;2023-06-14T07:16:49;145.85;;;135.73;;
53915;SDS011;39827;49.652;18.770;2023-06-14T07:19:14;74.95;;;69.35;;
53915;SDS011;39827;49.652;18.770;2023-06-14T07:21:40;58.28;;;53.72;;
53915;SDS011;39827;49.652;18.770;2023-06-14T07:24:06;40.78;;;37.60;;
53915;SDS011;39827;49.652;18.770;2023-06-14T07:26:32;51.08;;;47.50;;
53915;SDS011;39827;49.652;18.770;2023-06-14T07:28:58;38.92;;;35.97;;
53915;SDS011;39827;49.652;18.770;2023-06-14T07:31:23;63.88;;;59.03;;
53915;SDS011;39827;49.652;18.770;2023-06-14T07:33:49;77.72;;;72.93;;
53915;SDS011;39827;49.652;18.770;2023-06-14T07:36:14;89.53;;;83.93;;
53915;SDS011;39827;49.652;18.770;2023-06-14T07:38:40;140.75;;;132.10;;
53915;SDS011;39827;49.652;18.770;2023-06-14T07:41:06;44.95;;;41.70;;
53915;SDS011;39827;49.652;18.770;2023-06-14T07:43:32;77.75;;;72.53;;
53915;SDS011;39827;49.652;18.770;2023-06-14T07:45:58;83.65;;;78.40;;
53915;SDS011;39827;49.652;18.770;2023-06-14T07:48:23;68.80;;;64.43;;
53915;SDS011;39827;49.652;18.770;2023-06-14T07:50:49;27.50;;;25.38;;
53915;SDS011;39827;49.652;18.770;2023-06-14T07:53:14;29.05;;;26.65;;
53915;SDS011;39827;49.652;18.770;2023-06-14T07:55:39;32.22;;;29.13;;
53915;SDS011;39827;49.652;18.770;2023-06-14T07:58:08;45.05;;;41.65;;
53915;SDS011;39827;49.652;18.770;2023-06-14T08:00:34;53.58;;;42.28;;
53915;SDS011;39827;49.652;18.770;2023-06-14T08:02:59;26.58;;;24.08;;
53915;SDS011;39827;49.652;18.770;2023-06-14T08:05:25;25.50;;;22.98;;
53915;SDS011;39827;49.652;18.770;2023-06-14T08:07:52;32.50;;;29.95;;
53915;SDS011;39827;49.652;18.770;2023-06-14T08:10:17;28.92;;;26.20;;
53915;SDS011;39827;49.652;18.770;2023-06-14T08:12:43;28.27;;;25.23;;
53915;SDS011;39827;49.652;18.770;2023-06-14T08:15:10;47.42;;;43.72;;
53915;SDS011;39827;49.652;18.770;2023-06-14T08:17:35;49.30;;;45.20;;
53915;SDS011;39827;49.652;18.770;2023-06-14T08:20:01;41.10;;;37.13;;
53915;SDS011;39827;49.652;18.770;2023-06-14T08:22:28;49.40;;;45.53;;
53915;SDS011;39827;49.652;18.770;2023-06-14T08:24:57;42.67;;;39.13;;
53915;SDS011;39827;49.652;18.770;2023-06-14T08:27:23;48.00;;;44.28;;
53915;SDS011;39827;49.652;18.770;2023-06-14T08:29:48;82.82;;;77.03;;
53915;SDS011;39827;49.652;18.770;2023-06-14T08:32:13;75.18;;;65.70;;
53915;SDS011;39827;49.652;18.770;2023-06-14T08:34:39;92.82;;;83.97;;
53915;SDS011;39827;49.652;18.770;2023-06-14T08:37:04;83.55;;;75.78;;
53915;SDS011;39827;49.652;18.770;2023-06-14T08:39:31;70.13;;;63.88;;
53915;SDS011;39827;49.652;18.770;2023-06-14T08:41:57;80.85;;;73.82;;
53915;SDS011;39827;49.652;18.770;2023-06-14T08:44:23;64.75;;;59.53;;
53915;SDS011;39827;49.652;18.770;2023-06-14T08:46:48;59.78;;;55.35;;
53915;SDS011;39827;49.652;18.770;2023-06-14T08:49:16;73.22;;;67.82;;
53915;SDS011;39827;49.652;18.770;2023-06-14T08:51:42;58.10;;;53.78;;
53915;SDS011;39827;49.652;18.770;2023-06-14T08:54:08;59.13;;;54.75;;
53915;SDS011;39827;49.652;18.770;2023-06-14T08:56:37;57.40;;;53.40;;
53915;SDS011;39827;49.652;18.770;2023-06-14T08:59:03;42.42;;;39.28;;
53915;SDS011;39827;49.652;18.770;2023-06-14T09:01:38;38.55;;;35.22;;
53915;SDS011;39827;49.652;18.770;2023-06-14T09:04:04;53.53;;;49.30;;
53915;SDS011;39827;49.652;18.770;2023-06-14T09:06:33;30.73;;;27.83;;
53915;SDS011;39827;49.652;18.770;2023-06-14T09:08:58;43.38;;;40.17;;
53915;SDS011;39827;49.652;18.770;2023-06-14T09:11:24;39.92;;;36.88;;
53915;SDS011;39827;49.652;18.770;2023-06-14T09:13:51;48.15;;;44.53;;
53915;SDS011;39827;49.652;18.770;2023-06-14T09:16:16;38.05;;;35.20;;
53915;SDS011;39827;49.652;18.770;2023-06-14T09:18:43;25.60;;;23.55;;
53915;SDS011;39827;49.652;18.770;2023-06-14T09:21:10;25.33;;;22.73;;
53915;SDS011;39827;49.652;18.770;2023-06-14T09:23:37;25.65;;;23.20;;
53915;SDS011;39827;49.652;18.770;2023-06-14T09:26:10;38.35;;;35.40;;
53915;SDS011;39827;49.652;18.770;2023-06-14T09:28:47;31.63;;;29.25;;
53915;SDS011;39827;49.652;18.770;2023-06-14T09:31:15;39.33;;;36.35;;
53915;SDS011;39827;49.652;18.770;2023-06-14T09:33:41;26.45;;;24.23;;
53915;SDS011;39827;49.652;18.770;2023-06-14T09:36:14;25.35;;;23.17;;
53915;SDS011;39827;49.652;18.770;2023-06-14T09:38:52;26.65;;;24.27;;
53915;SDS011;39827;49.652;18.770;2023-06-14T09:41:18;36.53;;;33.55;;
53915;SDS011;39827;49.652;18.770;2023-06-14T09:43:43;48.15;;;44.38;;
53915;SDS011;39827;49.652;18.770;2023-06-14T09:46:12;48.33;;;44.55;;
53915;SDS011;39827;49.652;18.770;2023-06-14T09:48:38;44.97;;;41.60;;
53915;SDS011;39827;49.652;18.770;2023-06-14T09:51:07;59.25;;;54.80;;
53915;SDS011;39827;49.652;18.770;2023-06-14T09:53:37;57.83;;;53.67;;
53915;SDS011;39827;49.652;18.770;2023-06-14T09:56:05;56.28;;;51.95;;
53915;SDS011;39827;49.652;18.770;2023-06-14T09:58:31;52.03;;;48.22;;
53915;SDS011;39827;49.652;18.770;2023-06-14T10:01:00;28.75;;;26.40;;
53915;SDS011;39827;49.652;18.770;2023-06-14T10:03:29;29.55;;;27.05;;
53915;SDS011;39827;49.652;18.770;2023-06-14T10:05:57;24.75;;;22.60;;
53915;SDS011;39827;49.652;18.770;2023-06-14T10:08:27;22.58;;;20.38;;
53915;SDS011;39827;49.652;18.770;2023-06-14T10:10:55;25.05;;;22.65;;
53915;SDS011;39827;49.652;18.770;2023-06-14T10:13:21;25.83;;;23.58;;
53915;SDS011;39827;49.652;18.770;2023-06-14T10:16:07;35.42;;;32.63;;
53915;SDS011;39827;49.652;18.770;2023-06-14T10:21:21;42.42;;;39.33;;
53915;SDS011;39827;49.652;18.770;2023-06-14T10:23:47;37.30;;;34.40;;
53915;SDS011;39827;49.652;18.770;2023-06-14T10:26:21;110.82;;;103.25;;
53915;SDS011;39827;49.652;18.770;2023-06-14T10:28:58;68.18;;;63.53;;
53915;SDS011;39827;49.652;18.770;2023-06-14T10:31:41;89.30;;;83.43;;
53915;SDS011;39827;49.652;18.770;2023-06-14T10:34:10;93.65;;;87.35;;
53915;SDS011;39827;49.652;18.770;2023-06-14T10:36:50;65.90;;;61.08;;
53915;SDS011;39827;49.652;18.770;2023-06-14T10:39:31;91.22;;;85.35;;
53915;SDS011;39827;49.652;18.770;2023-06-14T10:42:05;77.95;;;72.80;;
53915;SDS011;39827;49.652;18.770;2023-06-14T10:47:06;73.82;;;69.03;;
53915;SDS011;39827;49.652;18.770;2023-06-14T10:49:42;84.15;;;78.80;;
53915;SDS011;39827;49.652;18.770;2023-06-14T10:52:10;72.00;;;67.10;;
53915;SDS011;39827;49.652;18.770;2023-06-14T10:57:24;98.75;;;92.63;;
53915;SDS011;39827;49.652;18.770;2023-06-14T10:59:50;83.43;;;77.95;;
53915;SDS011;39827;49.652;18.770;2023-06-14T11:02:27;133.73;;;125.75;;
53915;SDS011;39827;49.652;18.770;2023-06-14T11:05:12;229.05;;;215.10;;
53915;SDS011;39827;49.652;18.770;2023-06-14T11:13:03;261.83;;;245.77;;
53915;SDS011;39827;49.652;18.770;2023-06-14T11:15:29;178.57;;;167.57;;
53915;SDS011;39827;49.652;18.770;2023-06-14T11:17:55;167.30;;;156.77;;
53915;SDS011;39827;49.652;18.770;2023-06-14T11:20:24;169.75;;;159.00;;
53915;SDS011;39827;49.652;18.770;2023-06-14T11:22:51;198.48;;;186.38;;
53915;SDS011;39827;49.652;18.770;2023-06-14T11:25:17;228.95;;;215.35;;
53915;SDS011;39827;49.652;18.770;2023-06-14T11:27:43;207.75;;;195.05;;
53915;SDS011;39827;49.652;18.770;2023-06-14T11:30:09;204.45;;;192.25;;
53915;SDS011;39827;49.652;18.770;2023-06-14T11:32:38;345.15;;;323.75;;
53915;SDS011;39827;49.652;18.770;2023-06-14T11:35:04;372.70;;;349.70;;
53915;SDS011;39827;49.652;18.770;2023-06-14T11:37:31;318.17;;;298.92;;
53915;SDS011;39827;49.652;18.770;2023-06-14T11:40:02;232.75;;;218.00;;
53915;SDS011;39827;49.652;18.770;2023-06-14T11:42:33;265.15;;;249.20;;
53915;SDS011;39827;49.652;18.770;2023-06-14T11:44:59;344.13;;;323.08;;
53915;SDS011;39827;49.652;18.770;2023-06-14T11:47:35;332.10;;;311.92;;
53915;SDS011;39827;49.652;18.770;2023-06-14T11:50:02;246.00;;;231.15;;
53915;SDS011;39827;49.652;18.770;2023-06-14T11:52:29;380.00;;;355.52;;
53915;SDS011;39827;49.652;18.770;2023-06-14T11:54:56;247.63;;;232.23;;
53915;SDS011;39827;49.652;18.770;2023-06-14T11:57:22;267.58;;;250.40;;
53915;SDS011;39827;49.652;18.770;2023-06-14T11:59:48;243.70;;;228.70;;
53915;SDS011;39827;49.652;18.770;2023-06-14T12:02:17;251.93;;;236.27;;
53915;SDS011;39827;49.652;18.770;2023-06-14T12:04:43;241.25;;;226.30;;
53915;SDS011;39827;49.652;18.770;2023-06-14T12:07:09;226.98;;;212.90;;
53915;SDS011;39827;49.652;18.770;2023-06-14T12:12:24;237.23;;;222.23;;
53915;SDS011;39827;49.652;18.770;2023-06-14T12:14:50;267.83;;;251.02;;
53915;SDS011;39827;49.652;18.770;2023-06-14T12:17:16;260.13;;;244.50;;
53915;SDS011;39827;49.652;18.770;2023-06-14T12:19:42;261.67;;;245.95;;
53915;SDS011;39827;49.652;18.770;2023-06-14T12:22:14;294.23;;;275.73;;
53915;SDS011;39827;49.652;18.770;2023-06-14T12:24:44;281.23;;;263.63;;
53915;SDS011;39827;49.652;18.770;2023-06-14T12:27:10;277.13;;;259.60;;
53915;SDS011;39827;49.652;18.770;2023-06-14T12:29:37;259.58;;;243.68;;
53915;SDS011;39827;49.652;18.770;2023-06-14T12:32:02;284.48;;;266.45;;
53915;SDS011;39827;49.652;18.770;2023-06-14T12:34:28;276.50;;;258.77;;
53915;SDS011;39827;49.652;18.770;2023-06-14T12:36:56;257.02;;;241.00;;
53915;SDS011;39827;49.652;18.770;2023-06-14T12:39:22;275.73;;;258.35;;
53915;SDS011;39827;49.652;18.770;2023-06-14T12:41:48;297.02;;;278.60;;
53915;SDS011;39827;49.652;18.770;2023-06-14T12:44:16;316.58;;;296.15;;
53915;SDS011;39827;49.652;18.770;2023-06-14T12:46:42;342.20;;;320.00;;
53915;SDS011;39827;49.652;18.770;2023-06-14T12:49:11;355.52;;;332.48;;
53915;SDS011;39827;49.652;18.770;2023-06-14T12:51:37;314.02;;;294.52;;
53915;SDS011;39827;49.652;18.770;2023-06-14T12:54:04;298.60;;;280.38;;
53915;SDS011;39827;49.652;18.770;2023-06-14T12:56:29;283.38;;;266.20;;
53915;SDS011;39827;49.652;18.770;2023-06-14T12:58:55;292.45;;;273.92;;
53915;SDS011;39827;49.652;18.770;2023-06-14T13:01:20;276.33;;;259.33;;
53915;SDS011;39827;49.652;18.770;2023-06-14T13:03:49;287.15;;;269.58;;
53915;SDS011;39827;49.652;18.770;2023-06-14T13:06:16;296.67;;;278.02;;
53915;SDS011;39827;49.652;18.770;2023-06-14T13:08:42;287.08;;;268.63;;
53915;SDS011;39827;49.652;18.770;2023-06-14T13:11:08;297.63;;;278.95;;
53915;SDS011;39827;49.652;18.770;2023-06-14T13:13:34;296.50;;;278.10;;
53915;SDS011;39827;49.652;18.770;2023-06-14T13:15:59;284.85;;;267.15;;
53915;SDS011;39827;49.652;18.770;2023-06-14T13:18:25;295.27;;;276.85;;
53915;SDS011;39827;49.652;18.770;2023-06-14T13:20:50;287.27;;;269.48;;
53915;SDS011;39827;49.652;18.770;2023-06-14T13:23:16;293.50;;;275.02;;
53915;SDS011;39827;49.652;18.770;2023-06-14T13:25:41;373.02;;;348.70;;
53915;SDS011;39827;49.652;18.770;2023-06-14T13:28:07;335.55;;;314.02;;
53915;SDS011;39827;49.652;18.770;2023-06-14T13:30:32;370.80;;;347.10;;
53915;SDS011;39827;49.652;18.770;2023-06-14T13:32:58;389.50;;;364.52;;
53915;SDS011;39827;49.652;18.770;2023-06-14T13:35:24;396.73;;;370.52;;
53915;SDS011;39827;49.652;18.770;2023-06-14T13:37:50;321.48;;;301.15;;
53915;SDS011;39827;49.652;18.770;2023-06-14T13:40:16;406.20;;;380.42;;
53915;SDS011;39827;49.652;18.770;2023-06-14T13:42:42;406.67;;;380.35;;
53915;SDS011;39827;49.652;18.770;2023-06-14T13:45:08;395.63;;;369.63;;
53915;SDS011;39827;49.652;18.770;2023-06-14T13:47:35;332.45;;;311.80;;
53915;SDS011;39827;49.652;18.770;2023-06-14T13:50:00;312.60;;;293.35;;
53915;SDS011;39827;49.652;18.770;2023-06-14T13:52:26;352.95;;;329.90;;
53915;SDS011;39827;49.652;18.770;2023-06-14T13:54:52;310.25;;;290.92;;
53915;SDS011;39827;49.652;18.770;2023-06-14T13:57:17;319.52;;;299.20;;
53915;SDS011;39827;49.652;18.770;2023-06-14T13:59:43;303.83;;;284.27;;
53915;SDS011;39827;49.652;18.770;2023-06-14T14:02:09;302.92;;;283.92;;